sensor_id;sensor_type;location;lat;lon;timestamp;P1;durP1;ratioP1;P2;durP2;ratioP2
71360;SDS011;59166;48.908;1.870;2023-03-14T00:00:38;10.02;;;1.42;;
71360;SDS011;59166;48.908;1.870;2023-03-14T00:05:39;8.30;;;1.17;;
71360;SDS011;59166;48.908;1.870;2023-03-14T00:10:41;7.10;;;1.40;;
71360;SDS011;59166;48.908;1.870;2023-03-14T00:15:42;8.37;;;2.00;;
71360;SDS011;59166;48.908;1.870;2023-03-14T00:20:43;6.07;;;1.10;;
71360;SDS011;59166;48.908;1.870;2023-03-14T00:25:45;5.65;;;1.02;;
71360;SDS011;59166;48.908;1.870;2023-03-14T00:30:46;7.37;;;1.10;;
71360;SDS011;59166;48.908;1.870;2023-03-14T00:35:52;5.85;;;1.00;;
71360;SDS011;59166;48.908;1.870;2023-03-14T00:40:55;2.93;;;0.80;;
71360;SDS011;59166;48.908;1.870;2023-03-14T00:45:56;9.18;;;1.00;;
71360;SDS011;59166;48.908;1.870;2023-03-14T00:50:57;5.10;;;0.90;;
71360;SDS011;59166;48.908;1.870;2023-03-14T00:56:01;4.03;;;0.90;;
71360;SDS011;59166;48.908;1.870;2023-03-14T01:01:05;6.13;;;1.00;;
71360;SDS011;59166;48.908;1.870;2023-03-14T01:06:07;6.45;;;1.20;;
71360;SDS011;59166;48.908;1.870;2023-03-14T01:11:12;6.75;;;0.90;;
71360;SDS011;59166;48.908;1.870;2023-03-14T01:16:14;5.93;;;0.97;;
71360;SDS011;59166;48.908;1.870;2023-03-14T01:21:17;9.60;;;1.35;;
71360;SDS011;59166;48.908;1.870;2023-03-14T01:26:22;6.88;;;1.13;;
71360;SDS011;59166;48.908;1.870;2023-03-14T01:31:24;8.77;;;1.10;;
71360;SDS011;59166;48.908;1.870;2023-03-14T01:36:26;6.40;;;1.00;;
71360;SDS011;59166;48.908;1.870;2023-03-14T01:41:29;6.72;;;1.00;;
71360;SDS011;59166;48.908;1.870;2023-03-14T01:46:32;5.00;;;0.70;;
71360;SDS011;59166;48.908;1.870;2023-03-14T01:51:39;5.17;;;1.10;;
71360;SDS011;59166;48.908;1.870;2023-03-14T01:56:46;3.50;;;0.70;;
71360;SDS011;59166;48.908;1.870;2023-03-14T02:02:10;5.85;;;0.85;;
71360;SDS011;59166;48.908;1.870;2023-03-14T02:07:33;9.00;;;0.90;;
71360;SDS011;59166;48.908;1.870;2023-03-14T02:12:40;6.63;;;0.98;;
71360;SDS011;59166;48.908;1.870;2023-03-14T02:17:42;4.50;;;0.80;;
71360;SDS011;59166;48.908;1.870;2023-03-14T02:22:45;4.57;;;0.90;;
71360;SDS011;59166;48.908;1.870;2023-03-14T02:27:48;4.90;;;0.82;;
71360;SDS011;59166;48.908;1.870;2023-03-14T02:32:51;5.78;;;0.73;;
71360;SDS011;59166;48.908;1.870;2023-03-14T02:37:55;4.30;;;0.80;;
71360;SDS011;59166;48.908;1.870;2023-03-14T02:43:02;3.97;;;0.83;;
71360;SDS011;59166;48.908;1.870;2023-03-14T02:48:04;6.97;;;0.80;;
71360;SDS011;59166;48.908;1.870;2023-03-14T02:53:07;4.03;;;0.70;;
71360;SDS011;59166;48.908;1.870;2023-03-14T02:58:10;5.23;;;0.70;;
71360;SDS011;59166;48.908;1.870;2023-03-14T03:03:11;2.92;;;0.65;;
71360;SDS011;59166;48.908;1.870;2023-03-14T03:08:12;4.05;;;0.70;;
71360;SDS011;59166;48.908;1.870;2023-03-14T03:13:14;3.17;;;0.60;;
71360;SDS011;59166;48.908;1.870;2023-03-14T03:18:15;3.53;;;0.80;;
71360;SDS011;59166;48.908;1.870;2023-03-14T03:23:16;3.53;;;0.70;;
71360;SDS011;59166;48.908;1.870;2023-03-14T03:28:18;3.90;;;0.67;;
71360;SDS011;59166;48.908;1.870;2023-03-14T03:33:19;2.45;;;0.68;;
71360;SDS011;59166;48.908;1.870;2023-03-14T03:38:20;3.97;;;0.70;;
71360;SDS011;59166;48.908;1.870;2023-03-14T03:43:22;1.60;;;0.52;;
71360;SDS011;59166;48.908;1.870;2023-03-14T03:48:23;3.40;;;0.60;;
71360;SDS011;59166;48.908;1.870;2023-03-14T03:53:24;3.03;;;0.60;;
71360;SDS011;59166;48.908;1.870;2023-03-14T03:58:26;3.47;;;0.87;;
71360;SDS011;59166;48.908;1.870;2023-03-14T04:03:27;2.03;;;0.70;;
71360;SDS011;59166;48.908;1.870;2023-03-14T04:08:28;2.53;;;0.50;;
71360;SDS011;59166;48.908;1.870;2023-03-14T04:13:31;3.60;;;0.60;;
71360;SDS011;59166;48.908;1.870;2023-03-14T04:18:32;1.83;;;0.70;;
71360;SDS011;59166;48.908;1.870;2023-03-14T04:23:33;2.17;;;0.65;;
71360;SDS011;59166;48.908;1.870;2023-03-14T04:28:36;2.73;;;0.77;;
71360;SDS011;59166;48.908;1.870;2023-03-14T04:33:37;6.25;;;1.40;;
71360;SDS011;59166;48.908;1.870;2023-03-14T04:38:38;11.35;;;1.88;;
71360;SDS011;59166;48.908;1.870;2023-03-14T04:43:41;7.30;;;1.57;;
71360;SDS011;59166;48.908;1.870;2023-03-14T04:48:42;9.60;;;1.80;;
71360;SDS011;59166;48.908;1.870;2023-03-14T04:53:43;12.95;;;1.90;;
71360;SDS011;59166;48.908;1.870;2023-03-14T04:58:46;9.80;;;1.40;;
71360;SDS011;59166;48.908;1.870;2023-03-14T05:03:47;9.30;;;1.40;;
71360;SDS011;59166;48.908;1.870;2023-03-14T05:08:48;13.23;;;3.10;;
71360;SDS011;59166;48.908;1.870;2023-03-14T05:13:50;12.55;;;3.05;;
71360;SDS011;59166;48.908;1.870;2023-03-14T05:18:51;8.87;;;1.60;;
71360;SDS011;59166;48.908;1.870;2023-03-14T05:23:52;10.35;;;1.90;;
71360;SDS011;59166;48.908;1.870;2023-03-14T05:28:55;11.27;;;1.83;;
71360;SDS011;59166;48.908;1.870;2023-03-14T05:33:56;8.20;;;1.73;;
71360;SDS011;59166;48.908;1.870;2023-03-14T05:38:58;4.35;;;1.17;;
71360;SDS011;59166;48.908;1.870;2023-03-14T05:44:00;5.18;;;1.02;;
71360;SDS011;59166;48.908;1.870;2023-03-14T05:49:01;3.40;;;1.10;;
71360;SDS011;59166;48.908;1.870;2023-03-14T05:54:02;10.13;;;1.90;;
71360;SDS011;59166;48.908;1.870;2023-03-14T05:59:04;9.95;;;1.90;;
71360;SDS011;59166;48.908;1.870;2023-03-14T06:04:05;7.33;;;1.70;;
71360;SDS011;59166;48.908;1.870;2023-03-14T06:09:06;9.30;;;1.60;;
71360;SDS011;59166;48.908;1.870;2023-03-14T06:14:09;13.60;;;1.95;;
71360;SDS011;59166;48.908;1.870;2023-03-14T06:19:10;7.87;;;1.40;;
71360;SDS011;59166;48.908;1.870;2023-03-14T06:24:11;9.13;;;1.35;;
71360;SDS011;59166;48.908;1.870;2023-03-14T06:29:13;11.82;;;1.90;;
71360;SDS011;59166;48.908;1.870;2023-03-14T06:34:17;4.87;;;1.43;;
71360;SDS011;59166;48.908;1.870;2023-03-14T06:39:20;8.32;;;1.70;;
71360;SDS011;59166;48.908;1.870;2023-03-14T06:44:29;11.73;;;1.70;;
71360;SDS011;59166;48.908;1.870;2023-03-14T06:49:31;10.60;;;1.70;;
71360;SDS011;59166;48.908;1.870;2023-03-14T06:54:40;9.82;;;1.63;;
71360;SDS011;59166;48.908;1.870;2023-03-14T06:59:53;10.10;;;1.60;;
71360;SDS011;59166;48.908;1.870;2023-03-14T07:04:58;9.20;;;1.63;;
71360;SDS011;59166;48.908;1.870;2023-03-14T07:10:00;7.97;;;1.57;;
71360;SDS011;59166;48.908;1.870;2023-03-14T07:15:07;6.93;;;1.38;;
71360;SDS011;59166;48.908;1.870;2023-03-14T07:20:09;5.60;;;1.25;;
71360;SDS011;59166;48.908;1.870;2023-03-14T07:25:17;7.00;;;1.57;;
71360;SDS011;59166;48.908;1.870;2023-03-14T07:30:30;9.93;;;1.58;;
71360;SDS011;59166;48.908;1.870;2023-03-14T07:35:40;13.27;;;1.40;;
71360;SDS011;59166;48.908;1.870;2023-03-14T07:40:49;12.80;;;1.60;;
71360;SDS011;59166;48.908;1.870;2023-03-14T07:45:55;6.60;;;1.30;;
71360;SDS011;59166;48.908;1.870;2023-03-14T07:51:00;10.73;;;1.70;;
71360;SDS011;59166;48.908;1.870;2023-03-14T07:56:10;5.77;;;1.20;;
71360;SDS011;59166;48.908;1.870;2023-03-14T08:01:22;12.13;;;2.00;;
71360;SDS011;59166;48.908;1.870;2023-03-14T08:06:23;9.07;;;1.40;;
71360;SDS011;59166;48.908;1.870;2023-03-14T08:11:27;11.35;;;1.73;;
71360;SDS011;59166;48.908;1.870;2023-03-14T08:16:29;9.60;;;1.53;;
71360;SDS011;59166;48.908;1.870;2023-03-14T08:21:30;10.95;;;1.60;;
71360;SDS011;59166;48.908;1.870;2023-03-14T08:26:31;8.23;;;1.67;;
71360;SDS011;59166;48.908;1.870;2023-03-14T08:31:34;9.20;;;1.40;;
71360;SDS011;59166;48.908;1.870;2023-03-14T08:36:37;7.68;;;1.50;;
71360;SDS011;59166;48.908;1.870;2023-03-14T08:41:41;7.93;;;1.67;;
71360;SDS011;59166;48.908;1.870;2023-03-14T08:46:58;10.13;;;1.85;;
71360;SDS011;59166;48.908;1.870;2023-03-14T08:52:07;9.77;;;1.60;;
71360;SDS011;59166;48.908;1.870;2023-03-14T08:57:14;6.37;;;1.03;;
71360;SDS011;59166;48.908;1.870;2023-03-14T09:02:26;9.07;;;1.20;;
71360;SDS011;59166;48.908;1.870;2023-03-14T09:07:32;7.35;;;0.90;;
71360;SDS011;59166;48.908;1.870;2023-03-14T09:12:34;3.07;;;0.90;;
71360;SDS011;59166;48.908;1.870;2023-03-14T09:17:48;7.82;;;1.30;;
71360;SDS011;59166;48.908;1.870;2023-03-14T09:22:51;6.65;;;1.23;;
71360;SDS011;59166;48.908;1.870;2023-03-14T09:27:52;4.20;;;1.03;;
71360;SDS011;59166;48.908;1.870;2023-03-14T09:32:54;4.60;;;1.10;;
71360;SDS011;59166;48.908;1.870;2023-03-14T09:37:55;3.30;;;1.03;;
71360;SDS011;59166;48.908;1.870;2023-03-14T09:42:56;3.97;;;0.80;;
71360;SDS011;59166;48.908;1.870;2023-03-14T09:47:58;3.55;;;0.70;;
71360;SDS011;59166;48.908;1.870;2023-03-14T09:53:01;1.80;;;0.53;;
71360;SDS011;59166;48.908;1.870;2023-03-14T09:58:08;6.80;;;0.85;;
71360;SDS011;59166;48.908;1.870;2023-03-14T10:03:21;3.13;;;0.85;;
71360;SDS011;59166;48.908;1.870;2023-03-14T10:08:25;5.20;;;0.87;;
71360;SDS011;59166;48.908;1.870;2023-03-14T10:13:26;5.38;;;0.88;;
71360;SDS011;59166;48.908;1.870;2023-03-14T10:18:29;7.50;;;1.20;;
71360;SDS011;59166;48.908;1.870;2023-03-14T10:23:31;6.85;;;1.20;;
71360;SDS011;59166;48.908;1.870;2023-03-14T10:28:34;5.75;;;1.20;;
71360;SDS011;59166;48.908;1.870;2023-03-14T10:33:40;6.50;;;1.10;;
71360;SDS011;59166;48.908;1.870;2023-03-14T10:38:40;6.43;;;1.00;;
71360;SDS011;59166;48.908;1.870;2023-03-14T10:43:41;4.30;;;0.73;;
71360;SDS011;59166;48.908;1.870;2023-03-14T10:48:44;8.23;;;1.30;;
71360;SDS011;59166;48.908;1.870;2023-03-14T10:53:45;7.40;;;0.90;;
71360;SDS011;59166;48.908;1.870;2023-03-14T10:58:47;6.95;;;1.10;;
71360;SDS011;59166;48.908;1.870;2023-03-14T11:03:53;4.27;;;0.90;;
71360;SDS011;59166;48.908;1.870;2023-03-14T11:08:58;6.53;;;0.98;;
71360;SDS011;59166;48.908;1.870;2023-03-14T11:14:09;2.55;;;0.70;;
71360;SDS011;59166;48.908;1.870;2023-03-14T11:25:05;3.97;;;1.05;;
71360;SDS011;59166;48.908;1.870;2023-03-14T11:30:18;2.67;;;0.73;;
71360;SDS011;59166;48.908;1.870;2023-03-14T11:35:26;6.13;;;1.27;;
71360;SDS011;59166;48.908;1.870;2023-03-14T11:40:30;5.07;;;0.80;;
71360;SDS011;59166;48.908;1.870;2023-03-14T11:45:34;7.20;;;0.90;;
71360;SDS011;59166;48.908;1.870;2023-03-14T11:50:38;4.18;;;0.88;;
71360;SDS011;59166;48.908;1.870;2023-03-14T11:55:41;4.07;;;0.80;;
71360;SDS011;59166;48.908;1.870;2023-03-14T12:00:43;3.88;;;0.90;;
71360;SDS011;59166;48.908;1.870;2023-03-14T12:05:48;5.28;;;0.90;;
71360;SDS011;59166;48.908;1.870;2023-03-14T12:11:01;6.50;;;0.90;;
71360;SDS011;59166;48.908;1.870;2023-03-14T12:16:05;4.43;;;0.88;;
71360;SDS011;59166;48.908;1.870;2023-03-14T12:21:21;7.28;;;0.90;;
71360;SDS011;59166;48.908;1.870;2023-03-14T12:26:23;4.77;;;1.00;;
71360;SDS011;59166;48.908;1.870;2023-03-14T12:31:38;4.20;;;0.70;;
71360;SDS011;59166;48.908;1.870;2023-03-14T12:42:15;7.57;;;0.82;;
71360;SDS011;59166;48.908;1.870;2023-03-14T12:58:58;7.00;;;0.90;;
71360;SDS011;59166;48.908;1.870;2023-03-14T13:04:29;4.20;;;0.77;;
71360;SDS011;59166;48.908;1.870;2023-03-14T13:09:49;5.13;;;0.90;;
71360;SDS011;59166;48.908;1.870;2023-03-14T13:14:54;6.80;;;0.95;;
71360;SDS011;59166;48.908;1.870;2023-03-14T13:20:00;3.23;;;0.70;;
71360;SDS011;59166;48.908;1.870;2023-03-14T13:25:05;2.70;;;0.57;;
71360;SDS011;59166;48.908;1.870;2023-03-14T13:35:40;4.38;;;0.90;;
71360;SDS011;59166;48.908;1.870;2023-03-14T13:40:42;3.90;;;0.63;;
71360;SDS011;59166;48.908;1.870;2023-03-14T13:45:47;3.42;;;0.70;;
71360;SDS011;59166;48.908;1.870;2023-03-14T13:50:51;3.55;;;0.70;;
71360;SDS011;59166;48.908;1.870;2023-03-14T13:55:54;2.77;;;0.60;;
71360;SDS011;59166;48.908;1.870;2023-03-14T14:01:00;4.60;;;0.73;;
71360;SDS011;59166;48.908;1.870;2023-03-14T14:06:03;2.93;;;0.60;;
71360;SDS011;59166;48.908;1.870;2023-03-14T14:11:08;5.45;;;0.60;;
71360;SDS011;59166;48.908;1.870;2023-03-14T14:16:17;2.47;;;0.60;;
71360;SDS011;59166;48.908;1.870;2023-03-14T14:21:24;2.30;;;0.70;;
71360;SDS011;59166;48.908;1.870;2023-03-14T14:26:25;4.63;;;0.83;;
71360;SDS011;59166;48.908;1.870;2023-03-14T14:31:28;3.90;;;0.70;;
71360;SDS011;59166;48.908;1.870;2023-03-14T14:36:30;5.57;;;0.70;;
71360;SDS011;59166;48.908;1.870;2023-03-14T14:41:39;4.33;;;0.70;;
71360;SDS011;59166;48.908;1.870;2023-03-14T14:46:43;4.13;;;0.80;;
71360;SDS011;59166;48.908;1.870;2023-03-14T14:51:44;4.57;;;0.80;;
71360;SDS011;59166;48.908;1.870;2023-03-14T14:56:49;4.50;;;0.80;;
71360;SDS011;59166;48.908;1.870;2023-03-14T15:01:56;3.40;;;0.60;;
71360;SDS011;59166;48.908;1.870;2023-03-14T15:06:58;4.90;;;0.80;;
71360;SDS011;59166;48.908;1.870;2023-03-14T15:11:59;6.77;;;0.93;;
71360;SDS011;59166;48.908;1.870;2023-03-14T15:17:01;5.25;;;0.90;;
71360;SDS011;59166;48.908;1.870;2023-03-14T15:22:02;5.73;;;1.00;;
71360;SDS011;59166;48.908;1.870;2023-03-14T15:27:05;5.10;;;1.00;;
71360;SDS011;59166;48.908;1.870;2023-03-14T15:32:13;7.18;;;1.40;;
71360;SDS011;59166;48.908;1.870;2023-03-14T15:37:16;4.80;;;0.93;;
71360;SDS011;59166;48.908;1.870;2023-03-14T15:42:17;4.73;;;1.00;;
71360;SDS011;59166;48.908;1.870;2023-03-14T15:47:19;5.80;;;1.15;;
71360;SDS011;59166;48.908;1.870;2023-03-14T15:52:20;5.53;;;1.27;;
71360;SDS011;59166;48.908;1.870;2023-03-14T15:57:21;7.68;;;1.38;;
71360;SDS011;59166;48.908;1.870;2023-03-14T16:02:23;4.77;;;1.07;;
71360;SDS011;59166;48.908;1.870;2023-03-14T16:07:24;6.55;;;1.35;;
71360;SDS011;59166;48.908;1.870;2023-03-14T16:12:25;3.10;;;1.00;;
71360;SDS011;59166;48.908;1.870;2023-03-14T16:17:27;3.77;;;1.00;;
71360;SDS011;59166;48.908;1.870;2023-03-14T16:22:28;4.97;;;0.90;;
71360;SDS011;59166;48.908;1.870;2023-03-14T16:27:29;5.50;;;1.40;;
71360;SDS011;59166;48.908;1.870;2023-03-14T16:32:31;7.72;;;1.73;;
71360;SDS011;59166;48.908;1.870;2023-03-14T16:37:32;2.70;;;0.90;;
71360;SDS011;59166;48.908;1.870;2023-03-14T16:42:32;5.18;;;1.17;;
71360;SDS011;59166;48.908;1.870;2023-03-14T16:47:35;5.23;;;1.20;;
71360;SDS011;59166;48.908;1.870;2023-03-14T16:52:36;4.90;;;1.25;;
71360;SDS011;59166;48.908;1.870;2023-03-14T16:57:36;4.03;;;1.17;;
71360;SDS011;59166;48.908;1.870;2023-03-14T17:02:39;5.30;;;1.17;;
71360;SDS011;59166;48.908;1.870;2023-03-14T17:07:39;6.20;;;1.27;;
71360;SDS011;59166;48.908;1.870;2023-03-14T17:12:40;5.03;;;1.20;;
71360;SDS011;59166;48.908;1.870;2023-03-14T17:17:42;4.47;;;1.17;;
71360;SDS011;59166;48.908;1.870;2023-03-14T17:22:43;3.25;;;1.08;;
71360;SDS011;59166;48.908;1.870;2023-03-14T17:27:44;5.07;;;1.40;;
71360;SDS011;59166;48.908;1.870;2023-03-14T17:32:46;4.57;;;1.27;;
71360;SDS011;59166;48.908;1.870;2023-03-14T17:37:47;6.07;;;1.30;;
71360;SDS011;59166;48.908;1.870;2023-03-14T17:42:48;9.00;;;1.60;;
71360;SDS011;59166;48.908;1.870;2023-03-14T17:47:52;3.95;;;1.20;;
71360;SDS011;59166;48.908;1.870;2023-03-14T17:52:53;5.57;;;2.00;;
71360;SDS011;59166;48.908;1.870;2023-03-14T17:57:54;6.57;;;1.93;;
71360;SDS011;59166;48.908;1.870;2023-03-14T18:02:56;5.03;;;1.60;;
71360;SDS011;59166;48.908;1.870;2023-03-14T18:07:57;6.70;;;1.83;;
71360;SDS011;59166;48.908;1.870;2023-03-14T18:12:58;7.35;;;2.00;;
71360;SDS011;59166;48.908;1.870;2023-03-14T18:18:00;7.17;;;2.23;;
71360;SDS011;59166;48.908;1.870;2023-03-14T18:23:01;7.00;;;1.83;;
71360;SDS011;59166;48.908;1.870;2023-03-14T18:28:02;7.70;;;2.10;;
71360;SDS011;59166;48.908;1.870;2023-03-14T18:33:04;7.35;;;2.47;;
71360;SDS011;59166;48.908;1.870;2023-03-14T18:38:05;9.63;;;2.53;;
71360;SDS011;59166;48.908;1.870;2023-03-14T18:43:06;8.33;;;2.50;;
71360;SDS011;59166;48.908;1.870;2023-03-14T18:48:08;8.32;;;2.85;;
71360;SDS011;59166;48.908;1.870;2023-03-14T18:53:09;8.20;;;2.20;;
71360;SDS011;59166;48.908;1.870;2023-03-14T18:58:10;7.88;;;2.50;;
71360;SDS011;59166;48.908;1.870;2023-03-14T19:03:13;9.97;;;3.40;;
71360;SDS011;59166;48.908;1.870;2023-03-14T19:08:13;8.73;;;3.35;;
71360;SDS011;59166;48.908;1.870;2023-03-14T19:13:14;9.80;;;3.22;;
71360;SDS011;59166;48.908;1.870;2023-03-14T19:18:17;8.83;;;3.67;;
71360;SDS011;59166;48.908;1.870;2023-03-14T19:23:18;11.20;;;3.72;;
71360;SDS011;59166;48.908;1.870;2023-03-14T19:28:19;10.43;;;4.18;;
71360;SDS011;59166;48.908;1.870;2023-03-14T19:33:42;10.97;;;4.23;;
71360;SDS011;59166;48.908;1.870;2023-03-14T19:38:43;12.20;;;4.35;;
71360;SDS011;59166;48.908;1.870;2023-03-14T19:43:44;12.70;;;4.93;;
71360;SDS011;59166;48.908;1.870;2023-03-14T19:48:46;13.75;;;5.78;;
71360;SDS011;59166;48.908;1.870;2023-03-14T19:53:47;14.43;;;5.63;;
71360;SDS011;59166;48.908;1.870;2023-03-14T19:58:48;11.87;;;4.80;;
71360;SDS011;59166;48.908;1.870;2023-03-14T20:03:51;11.05;;;4.30;;
71360;SDS011;59166;48.908;1.870;2023-03-14T20:08:51;10.45;;;4.00;;
71360;SDS011;59166;48.908;1.870;2023-03-14T20:13:52;9.37;;;3.73;;
71360;SDS011;59166;48.908;1.870;2023-03-14T20:18:55;9.48;;;3.63;;
71360;SDS011;59166;48.908;1.870;2023-03-14T20:23:56;12.13;;;4.83;;
71360;SDS011;59166;48.908;1.870;2023-03-14T20:28:57;11.88;;;4.70;;
71360;SDS011;59166;48.908;1.870;2023-03-14T20:33:59;10.50;;;4.53;;
71360;SDS011;59166;48.908;1.870;2023-03-14T20:39:00;16.30;;;7.20;;
71360;SDS011;59166;48.908;1.870;2023-03-14T20:44:01;16.30;;;7.05;;
71360;SDS011;59166;48.908;1.870;2023-03-14T20:49:04;15.98;;;7.30;;
71360;SDS011;59166;48.908;1.870;2023-03-14T20:54:05;23.33;;;8.20;;
71360;SDS011;59166;48.908;1.870;2023-03-14T20:59:06;20.48;;;8.20;;
71360;SDS011;59166;48.908;1.870;2023-03-14T21:04:08;23.27;;;8.60;;
71360;SDS011;59166;48.908;1.870;2023-03-14T21:09:09;19.37;;;6.97;;
71360;SDS011;59166;48.908;1.870;2023-03-14T21:14:10;16.55;;;6.70;;
71360;SDS011;59166;48.908;1.870;2023-03-14T21:19:12;14.17;;;5.40;;
71360;SDS011;59166;48.908;1.870;2023-03-14T21:24:13;10.90;;;4.18;;
71360;SDS011;59166;48.908;1.870;2023-03-14T21:29:14;10.43;;;4.10;;
71360;SDS011;59166;48.908;1.870;2023-03-14T21:34:17;9.80;;;4.00;;
71360;SDS011;59166;48.908;1.870;2023-03-14T21:39:20;11.65;;;4.40;;
71360;SDS011;59166;48.908;1.870;2023-03-14T21:44:25;9.97;;;4.23;;
71360;SDS011;59166;48.908;1.870;2023-03-14T21:49:30;11.90;;;5.13;;
71360;SDS011;59166;48.908;1.870;2023-03-14T21:54:32;10.43;;;4.07;;
71360;SDS011;59166;48.908;1.870;2023-03-14T21:59:37;10.30;;;4.10;;
71360;SDS011;59166;48.908;1.870;2023-03-14T22:04:43;23.27;;;8.40;;
71360;SDS011;59166;48.908;1.870;2023-03-14T22:09:44;21.52;;;8.25;;
71360;SDS011;59166;48.908;1.870;2023-03-14T22:14:46;18.15;;;6.93;;
71360;SDS011;59166;48.908;1.870;2023-03-14T22:19:49;21.83;;;6.80;;
71360;SDS011;59166;48.908;1.870;2023-03-14T22:24:50;13.40;;;5.38;;
71360;SDS011;59166;48.908;1.870;2023-03-14T22:29:51;15.13;;;4.85;;
71360;SDS011;59166;48.908;1.870;2023-03-14T22:34:54;11.67;;;4.90;;
71360;SDS011;59166;48.908;1.870;2023-03-14T22:39:55;13.63;;;5.15;;
71360;SDS011;59166;48.908;1.870;2023-03-14T22:44:56;12.33;;;4.63;;
71360;SDS011;59166;48.908;1.870;2023-03-14T22:49:59;11.75;;;4.82;;
71360;SDS011;59166;48.908;1.870;2023-03-14T22:55:00;11.38;;;4.20;;
71360;SDS011;59166;48.908;1.870;2023-03-14T23:00:00;11.83;;;4.13;;
71360;SDS011;59166;48.908;1.870;2023-03-14T23:05:03;11.52;;;3.83;;
71360;SDS011;59166;48.908;1.870;2023-03-14T23:10:05;9.98;;;3.90;;
71360;SDS011;59166;48.908;1.870;2023-03-14T23:15:07;13.17;;;4.23;;
71360;SDS011;59166;48.908;1.870;2023-03-14T23:20:11;13.05;;;4.75;;
71360;SDS011;59166;48.908;1.870;2023-03-14T23:25:12;12.60;;;4.75;;
71360;SDS011;59166;48.908;1.870;2023-03-14T23:30:13;13.53;;;4.40;;
71360;SDS011;59166;48.908;1.870;2023-03-14T23:35:17;10.95;;;4.30;;
71360;SDS011;59166;48.908;1.870;2023-03-14T23:40:18;14.20;;;4.82;;
71360;SDS011;59166;48.908;1.870;2023-03-14T23:45:19;12.10;;;4.53;;
71360;SDS011;59166;48.908;1.870;2023-03-14T23:50:22;12.05;;;4.68;;
71360;SDS011;59166;48.908;1.870;2023-03-14T23:55:23;12.50;;;4.68;;
